Barkald — V7IM6 — position and weather

sailwx.info

Track history (hours):
 
Tides and Currents Weather Stations Pressure Air Temp Water Temp Dewpoint Dewpoint Depression Visibility Wind Speed Wind Dir Waves Ship Positions

Barkald

Last reported at 2014-Dec-16 13:20 UTC. Time now 2014-Dec-19 11:58 UTC.
Position N 40°06' W 074°50'.

Length 189 m; draft 11.7 m.

MMSI: 538002409.

Date/timePositionNaut miles runAvg speedWind from/ knotsBaromVisibWave heightAir tempDewpointWater temp
2014-Dec-16 13:20N 40°06' W 074°50'10 8.6
2014-Dec-16 12:07N 40°01' W 075°02'111 4.5
2014-Dec-15 11:33N 38°55' W 073°07'1412.7
2014-Dec-15 10:25N 38°59' W 072°49'1113.1
2014-Dec-15 09:33N 39°02' W 072°35'1313.1
2014-Dec-15 08:33N 39°05' W 072°18'1514.6
2014-Dec-15 07:33N 39°09' W 072°00'1514.7
2014-Dec-15 06:33N 39°13' W 071°42'1414.5
2014-Dec-15 05:34N 39°17' W 071°24'1514.5
2014-Dec-15 04:34N 39°20' W 071°06'1515.0
2014-Dec-15 03:34N 39°24' W 070°47'1514.8
2014-Dec-15 02:31N 39°28' W 070°28'1414.8
2014-Dec-15 01:34N 39°32' W 070°10'1514.8
2014-Dec-15 00:32N 39°36' W 069°51'3014.1
2014-Dec-14 22:23N 39°44' W 069°13'1212.4
2014-Dec-14 21:26N 39°50' W 069°00'1513.3
2014-Dec-14 20:19N 40°01' W 068°48'1113.7
2014-Dec-14 19:33N 40°10' W 068°40'1614.5
2014-Dec-14 18:28N 40°22' W 068°26'  
2014-Dec-11 02:25N 40°38' W 071°04'1011.7
2014-Dec-11 01:33N 40°45' W 071°13'10 9.8
2014-Dec-11 00:34N 40°54' W 071°18'10 9.9
2014-Dec-10 23:33N 41°03' W 071°24'9 9.5
2014-Dec-10 22:33N 41°12' W 071°29'9 8.9
2014-Dec-10 21:34N 41°18' W 071°38'1414.0
2014-Dec-10 20:33N 41°15' W 071°56'1414.1
2014-Dec-10 19:34N 41°13' W 072°14'1413.7
2014-Dec-10 18:33N 41°10' W 072°32'1313.4
2014-Dec-10 17:33N 41°07' W 072°50'3 2.8
2014-Dec-10 16:33N 41°07' W 072°53'1413.6
2014-Dec-10 15:33N 41°09' W 072°36'1414.4
2014-Dec-10 14:33N 41°12' W 072°17'1313.3
2014-Dec-10 13:33N 41°14' W 071°59'1312.8
2014-Dec-10 12:33N 41°16' W 071°43'10 9.6
2014-Dec-10 11:33N 41°16' W 071°30'6 6.4
2014-Dec-10 10:33N 41°09' W 071°29'7 6.6
2014-Dec-10 09:33N 41°03' W 071°30'9 9.3
2014-Dec-10 08:33N 40°55' W 071°38'7 7.1
2014-Dec-10 07:33N 40°49' W 071°42'4 3.7
2014-Dec-10 06:33N 40°50' W 071°37'4 3.6
2014-Dec-10 05:33N 40°51' W 071°33'3 2.9
2014-Dec-10 04:33N 40°51' W 071°29'3 2.8
2014-Dec-10 03:33N 40°52' W 071°25'2 2.3
2014-Dec-10 02:33N 40°52' W 071°22'2 1.9
2014-Dec-10 01:33N 40°52' W 071°20'2 2.3
2014-Dec-10 00:33N 40°52' W 071°17'4 3.5
2014-Dec-09 23:33N 40°50' W 071°13'2 2.0
2014-Dec-09 22:33N 40°49' W 071°14'4 4.3
2014-Dec-09 21:33N 40°47' W 071°19'4 3.5
2014-Dec-09 20:33N 40°46' W 071°24'3 3.2
2014-Dec-09 19:33N 40°44' W 071°27'3 2.7
2014-Dec-09 18:33N 40°42' W 071°30'3 2.7
2014-Dec-09 17:33N 40°40' W 071°32'6 5.8
2014-Dec-09 16:33N 40°35' W 071°36'7 7.5
2014-Dec-09 15:33N 40°29' W 071°41'8 7.8
2014-Dec-09 14:33N 40°22' W 071°46'8 7.9
2014-Dec-09 13:33N 40°15' W 071°51'42 8.4
2014-Dec-09 08:28N 39°37' W 072°14'9 8.4
2014-Dec-09 07:23N 39°28' W 072°19'7 8.4
2014-Dec-09 06:33N 39°22' W 072°23'9 8.7
2014-Dec-09 05:33N 39°14' W 072°27'8 8.3
2014-Dec-09 04:33N 39°07' W 072°32'8 8.0
2014-Dec-09 03:32N 38°59' W 072°37'8 8.0
2014-Dec-09 02:33N 38°52' W 072°42'  
Track history (hours):
 
Tides and Currents Weather Stations Pressure Air Temp Water Temp Dewpoint Dewpoint Depression Visibility Wind Speed Wind Dir Waves Ship Positions

Barkald

Last reported at 2014-Dec-16 13:20 UTC. Time now 2014-Dec-19 11:58 UTC.
Position N 40°06' W 074°50'.

Length 189 m; draft 11.7 m.

MMSI: 538002409.

Date/timePositionNaut miles runAvg speedWind from/ knotsBaromVisibWave heightAir tempDewpointWater temp
2014-Dec-16 13:20N 40°06' W 074°50'10 8.6
2014-Dec-16 12:07N 40°01' W 075°02'111 4.5
2014-Dec-15 11:33N 38°55' W 073°07'1412.7
2014-Dec-15 10:25N 38°59' W 072°49'1113.1
2014-Dec-15 09:33N 39°02' W 072°35'1313.1
2014-Dec-15 08:33N 39°05' W 072°18'1514.6
2014-Dec-15 07:33N 39°09' W 072°00'1514.7
2014-Dec-15 06:33N 39°13' W 071°42'1414.5
2014-Dec-15 05:34N 39°17' W 071°24'1514.5
2014-Dec-15 04:34N 39°20' W 071°06'1515.0
2014-Dec-15 03:34N 39°24' W 070°47'1514.8
2014-Dec-15 02:31N 39°28' W 070°28'1414.8
2014-Dec-15 01:34N 39°32' W 070°10'1514.8
2014-Dec-15 00:32N 39°36' W 069°51'3014.1
2014-Dec-14 22:23N 39°44' W 069°13'1212.4
2014-Dec-14 21:26N 39°50' W 069°00'1513.3
2014-Dec-14 20:19N 40°01' W 068°48'1113.7
2014-Dec-14 19:33N 40°10' W 068°40'1614.5
2014-Dec-14 18:28N 40°22' W 068°26'  
2014-Dec-11 02:25N 40°38' W 071°04'1011.7
2014-Dec-11 01:33N 40°45' W 071°13'10 9.8
2014-Dec-11 00:34N 40°54' W 071°18'10 9.9
2014-Dec-10 23:33N 41°03' W 071°24'9 9.5
2014-Dec-10 22:33N 41°12' W 071°29'9 8.9
2014-Dec-10 21:34N 41°18' W 071°38'1414.0
2014-Dec-10 20:33N 41°15' W 071°56'1414.1
2014-Dec-10 19:34N 41°13' W 072°14'1413.7
2014-Dec-10 18:33N 41°10' W 072°32'1313.4
2014-Dec-10 17:33N 41°07' W 072°50'3 2.8
2014-Dec-10 16:33N 41°07' W 072°53'1413.6
2014-Dec-10 15:33N 41°09' W 072°36'1414.4
2014-Dec-10 14:33N 41°12' W 072°17'1313.3
2014-Dec-10 13:33N 41°14' W 071°59'1312.8
2014-Dec-10 12:33N 41°16' W 071°43'10 9.6
2014-Dec-10 11:33N 41°16' W 071°30'6 6.4
2014-Dec-10 10:33N 41°09' W 071°29'7 6.6
2014-Dec-10 09:33N 41°03' W 071°30'9 9.3
2014-Dec-10 08:33N 40°55' W 071°38'7 7.1
2014-Dec-10 07:33N 40°49' W 071°42'4 3.7
2014-Dec-10 06:33N 40°50' W 071°37'4 3.6
2014-Dec-10 05:33N 40°51' W 071°33'3 2.9
2014-Dec-10 04:33N 40°51' W 071°29'3 2.8
2014-Dec-10 03:33N 40°52' W 071°25'2 2.3
2014-Dec-10 02:33N 40°52' W 071°22'2 1.9
2014-Dec-10 01:33N 40°52' W 071°20'2 2.3
2014-Dec-10 00:33N 40°52' W 071°17'4 3.5
2014-Dec-09 23:33N 40°50' W 071°13'2 2.0
2014-Dec-09 22:33N 40°49' W 071°14'4 4.3
2014-Dec-09 21:33N 40°47' W 071°19'4 3.5
2014-Dec-09 20:33N 40°46' W 071°24'3 3.2
2014-Dec-09 19:33N 40°44' W 071°27'3 2.7
2014-Dec-09 18:33N 40°42' W 071°30'3 2.7
2014-Dec-09 17:33N 40°40' W 071°32'6 5.8
2014-Dec-09 16:33N 40°35' W 071°36'7 7.5
2014-Dec-09 15:33N 40°29' W 071°41'8 7.8
2014-Dec-09 14:33N 40°22' W 071°46'8 7.9
2014-Dec-09 13:33N 40°15' W 071°51'42 8.4
2014-Dec-09 08:28N 39°37' W 072°14'9 8.4
2014-Dec-09 07:23N 39°28' W 072°19'7 8.4
2014-Dec-09 06:33N 39°22' W 072°23'9 8.7
2014-Dec-09 05:33N 39°14' W 072°27'8 8.3
2014-Dec-09 04:33N 39°07' W 072°32'8 8.0
2014-Dec-09 03:32N 38°59' W 072°37'8 8.0
2014-Dec-09 02:33N 38°52' W 072°42'  

Dump ship's entire track history